createdAt,value
2022-08-09T00:00:00.202Z,99.90
2022-08-09T00:02:33.094Z,99.90
2022-08-09T00:05:03.665Z,99.90
2022-08-09T00:07:49.510Z,99.90
2022-08-09T00:10:21.481Z,99.90
2022-08-09T00:12:53.149Z,99.90
2022-08-09T00:15:26.799Z,99.90
2022-08-09T00:18:11.454Z,99.90
2022-08-09T00:20:42.626Z,99.90
2022-08-09T00:23:56.055Z,99.90
2022-08-09T00:26:07.669Z,99.90
2022-08-09T00:28:35.545Z,99.90
2022-08-09T00:31:30.720Z,99.90
2022-08-09T00:33:54.182Z,99.90
2022-08-09T00:36:27.055Z,99.90
2022-08-09T00:38:56.863Z,99.90
2022-08-09T00:44:11.746Z,99.90
2022-08-09T00:44:25.526Z,99.90
2022-08-09T00:47:04.486Z,99.90
2022-08-09T00:49:36.829Z,99.90
2022-08-09T00:52:06.231Z,99.90
2022-08-09T00:54:46.260Z,99.90
2022-08-09T00:57:13.713Z,99.90
2022-08-09T00:59:52.490Z,99.90
2022-08-09T01:02:26.813Z,99.90
2022-08-09T01:05:14.080Z,99.90
2022-08-09T01:08:00.447Z,99.90
2022-08-09T01:10:38.874Z,99.90
2022-08-09T01:13:41.734Z,99.90
2022-08-09T01:16:27.011Z,99.90
2022-08-09T01:19:04.918Z,99.90
2022-08-09T01:22:18.879Z,99.90
2022-08-09T01:25:30.620Z,99.90
2022-08-09T01:28:00.410Z,99.90
2022-08-09T01:30:51.147Z,99.90
2022-08-09T01:33:22.477Z,99.90
2022-08-09T01:36:04.430Z,99.90
2022-08-09T01:38:40.054Z,99.90
2022-08-09T01:41:13.919Z,99.90
2022-08-09T01:43:50.884Z,99.90
2022-08-09T01:46:29.982Z,99.90
2022-08-09T01:49:17.557Z,99.90
2022-08-09T01:51:53.031Z,99.90
2022-08-09T01:54:37.040Z,99.90
2022-08-09T01:57:31.415Z,99.90
2022-08-09T02:00:34.889Z,99.90
2022-08-09T02:02:59.153Z,99.90
2022-08-09T02:05:37.893Z,99.90
2022-08-09T02:08:38.672Z,99.90
2022-08-09T02:11:17.142Z,99.90
2022-08-09T02:13:55.444Z,99.90
2022-08-09T02:17:00.067Z,99.90
2022-08-09T02:19:24.939Z,99.90
2022-08-09T02:22:31.631Z,99.90
2022-08-09T02:25:10.195Z,99.90
2022-08-09T02:28:24.054Z,99.90
2022-08-09T02:31:01.301Z,99.90
2022-08-09T02:34:07.529Z,99.90
2022-08-09T02:36:39.155Z,99.90
2022-08-09T02:39:19.893Z,99.90
2022-08-09T02:42:13.258Z,99.90
2022-08-09T02:44:50.486Z,99.90
2022-08-09T02:47:21.436Z,99.90
2022-08-09T02:49:55.420Z,99.90
2022-08-09T02:52:46.261Z,99.90
2022-08-09T02:55:20.640Z,99.90
2022-08-09T02:58:00.597Z,99.90
2022-08-09T03:00:58.297Z,99.90
2022-08-09T03:04:05.801Z,99.90
2022-08-09T03:06:15.895Z,99.90
2022-08-09T03:08:48.277Z,99.90
2022-08-09T03:12:04.667Z,99.90
2022-08-09T03:14:10.131Z,99.90
2022-08-09T03:16:44.749Z,99.90
2022-08-09T03:19:14.626Z,99.90
2022-08-09T03:22:03.298Z,99.90
2022-08-09T03:24:42.706Z,99.90
2022-08-09T03:27:21.416Z,99.90
2022-08-09T03:29:58.057Z,99.90
2022-08-09T03:32:31.626Z,99.90
2022-08-09T03:35:00.507Z,99.90
2022-08-09T03:37:54.530Z,99.90
2022-08-09T03:40:18.048Z,99.90
2022-08-09T03:42:46.672Z,99.90
2022-08-09T03:45:15.644Z,99.90
2022-08-09T03:47:46.486Z,99.90
2022-08-09T03:50:18.886Z,99.90
2022-08-09T03:53:03.363Z,99.90
2022-08-09T03:55:36.062Z,99.90
2022-08-09T03:58:16.558Z,99.90
2022-08-09T04:00:47.834Z,99.90
2022-08-09T04:03:24.515Z,99.90
2022-08-09T04:05:52.249Z,99.90
2022-08-09T04:08:19.411Z,99.90
2022-08-09T04:10:56.413Z,99.90
2022-08-09T04:14:37.627Z,99.90
2022-08-09T04:16:20.606Z,99.90
2022-08-09T04:18:51.157Z,99.90
2022-08-09T04:21:19.237Z,99.90
2022-08-09T04:23:54.396Z,99.90
2022-08-09T04:26:25.228Z,99.90
2022-08-09T04:29:10.936Z,99.90
2022-08-09T04:31:47.371Z,99.90
2022-08-09T04:34:19.046Z,99.90
2022-08-09T04:36:57.876Z,99.90
2022-08-09T04:39:25.198Z,99.90
2022-08-09T04:41:59.716Z,99.90
2022-08-09T04:44:29.480Z,99.90
2022-08-09T04:47:04.505Z,99.90
2022-08-09T04:49:53.449Z,99.90
2022-08-09T04:52:28.436Z,99.90
2022-08-09T04:55:02.177Z,99.90
2022-08-09T04:57:54.320Z,99.90
2022-08-09T05:00:19.348Z,99.90
2022-08-09T05:02:52.033Z,99.90
2022-08-09T05:05:31.424Z,99.90
2022-08-09T05:08:08.337Z,99.90
2022-08-09T05:10:36.660Z,99.90
2022-08-09T05:13:04.117Z,99.90
2022-08-09T05:15:39.057Z,99.90
2022-08-09T05:18:50.296Z,99.90
2022-08-09T05:20:57.939Z,99.90
2022-08-09T05:23:56.945Z,99.90
2022-08-09T05:26:22.268Z,99.90
2022-08-09T05:28:59.550Z,99.90
2022-08-09T05:31:44.021Z,99.90
2022-08-09T05:34:16.639Z,99.90
2022-08-09T05:36:46.762Z,99.90
2022-08-09T05:39:29.068Z,99.90
2022-08-09T05:42:01.636Z,99.90
2022-08-09T05:44:34.840Z,99.90
2022-08-09T05:47:05.725Z,99.90
2022-08-09T05:50:24.510Z,99.90
2022-08-09T05:52:21.418Z,99.90
2022-08-09T05:54:52.153Z,99.90
2022-08-09T05:57:19.533Z,99.90
2022-08-09T05:59:52.376Z,99.90
2022-08-09T06:02:20.264Z,99.90
2022-08-09T06:04:49.087Z,99.90
2022-08-09T06:07:21.500Z,99.90
2022-08-09T06:09:54.598Z,99.90
2022-08-09T06:12:29.472Z,99.90
2022-08-09T06:15:00.675Z,99.90
2022-08-09T06:17:40.493Z,99.90
2022-08-09T06:20:08.735Z,99.90
2022-08-09T06:22:36.839Z,99.90
2022-08-09T06:25:04.758Z,99.90
2022-08-09T06:27:42.115Z,99.90
2022-08-09T06:30:14.267Z,99.90
2022-08-09T06:32:59.157Z,99.90
2022-08-09T06:35:35.872Z,99.90
2022-08-09T06:38:16.189Z,99.90
2022-08-09T06:40:43.806Z,99.90
2022-08-09T06:43:13.479Z,99.90
2022-08-09T06:46:06.771Z,99.90
2022-08-09T06:48:31.062Z,99.90
2022-08-09T06:50:59.943Z,99.90
2022-08-09T06:53:27.790Z,99.90
2022-08-09T06:56:09.606Z,99.90
2022-08-09T07:00:52.180Z,99.90
2022-08-09T07:01:27.612Z,99.90
2022-08-09T07:04:20.173Z,99.90
2022-08-09T07:06:48.242Z,99.90
2022-08-09T07:09:54.234Z,99.90
2022-08-09T07:12:17.322Z,99.90
2022-08-09T07:14:51.013Z,99.90
2022-08-09T07:17:20.085Z,99.90
2022-08-09T07:19:47.998Z,99.90
2022-08-09T07:22:18.409Z,99.90
2022-08-09T07:24:49.433Z,99.90
2022-08-09T07:27:26.872Z,99.90
2022-08-09T07:30:02.583Z,99.90
2022-08-09T07:32:32.226Z,99.90
2022-08-09T07:35:08.250Z,99.90
2022-08-09T07:37:48.017Z,99.90
2022-08-09T07:40:20.738Z,99.90
2022-08-09T07:43:00.715Z,99.90
2022-08-09T07:45:40.300Z,99.90
2022-08-09T07:48:25.661Z,99.90
2022-08-09T07:51:09.077Z,99.90
2022-08-09T07:54:04.897Z,99.90
2022-08-09T07:56:36.055Z,99.90
2022-08-09T07:59:12.541Z,99.90
2022-08-09T08:01:43.034Z,99.90
2022-08-09T08:04:20.353Z,99.90
2022-08-09T08:07:00.228Z,99.90
2022-08-09T08:09:42.907Z,99.90
2022-08-09T08:12:24.736Z,99.90
2022-08-09T08:14:55.318Z,99.90
2022-08-09T08:17:52.479Z,99.90
2022-08-09T08:20:13.536Z,99.90
2022-08-09T08:22:41.301Z,99.90
2022-08-09T08:25:13.628Z,99.90
2022-08-09T08:27:43.066Z,99.90
2022-08-09T08:30:13.792Z,99.90
2022-08-09T08:32:53.612Z,99.90
2022-08-09T08:35:22.268Z,99.90
2022-08-09T08:38:02.110Z,99.90
2022-08-09T08:40:33.690Z,99.90
2022-08-09T08:43:08.963Z,99.90
2022-08-09T08:46:04.036Z,99.90
2022-08-09T08:48:51.756Z,99.90
2022-08-09T08:51:24.138Z,99.90
2022-08-09T08:54:02.914Z,99.90
2022-08-09T08:56:33.352Z,99.90
2022-08-09T08:59:18.855Z,99.90
2022-08-09T09:01:53.278Z,99.90
2022-08-09T09:04:31.082Z,99.90
2022-08-09T09:07:08.153Z,99.90
2022-08-09T09:09:58.487Z,99.90
2022-08-09T09:12:30.057Z,99.90
2022-08-09T09:15:01.391Z,99.90
2022-08-09T09:17:30.766Z,99.90
2022-08-09T09:20:16.537Z,99.90
2022-08-09T09:23:01.657Z,99.90
2022-08-09T09:26:01.854Z,99.00
2022-08-09T09:29:01.886Z,99.30
2022-08-09T09:32:01.655Z,99.10
2022-08-09T09:34:15.348Z,99.30
2022-08-09T09:36:51.137Z,98.60
2022-08-09T09:39:54.898Z,98.90
2022-08-09T09:42:27.772Z,97.70
2022-08-09T09:45:08.341Z,97.60
2022-08-09T09:47:47.600Z,97.60
2022-08-09T09:50:23.024Z,96.80
2022-08-09T09:52:56.254Z,96.70
2022-08-09T09:55:32.668Z,95.70
2022-08-09T09:58:17.159Z,96.90
2022-08-09T10:00:54.059Z,96.30
2022-08-09T10:03:42.950Z,95.10
2022-08-09T10:06:12.858Z,95.50
2022-08-09T10:08:43.339Z,94.50
2022-08-09T10:11:59.727Z,93.90
2022-08-09T10:14:33.145Z,94.80
2022-08-09T10:17:39.671Z,94.10
2022-08-09T10:20:01.503Z,93.60
2022-08-09T10:22:34.298Z,93.20
2022-08-09T10:25:11.148Z,92.80
2022-08-09T10:27:45.281Z,92.70
2022-08-09T10:34:04.952Z,92.00
2022-08-09T10:36:11.726Z,91.20
2022-08-09T10:38:56.224Z,90.70
2022-08-09T10:41:27.799Z,90.70
2022-08-09T10:44:01.011Z,90.40
2022-08-09T10:48:12.812Z,87.00
2022-08-09T10:50:27.213Z,87.80
2022-08-09T10:53:19.455Z,89.20
2022-08-09T10:55:58.073Z,90.50
2022-08-09T10:58:34.740Z,88.50
2022-08-09T11:03:06.932Z,89.70
2022-08-09T11:04:27.874Z,87.70
2022-08-09T11:07:00.384Z,87.80
2022-08-09T11:09:48.050Z,85.80
2022-08-09T11:12:29.874Z,86.20
2022-08-09T11:15:01.687Z,87.20
2022-08-09T11:17:32.501Z,84.20
2022-08-09T11:20:23.062Z,82.30
2022-08-09T11:22:57.324Z,81.80
2022-08-09T11:25:47.111Z,79.60
2022-08-09T11:28:38.550Z,80.00
2022-08-09T11:31:39.678Z,80.30
2022-08-09T11:34:24.872Z,77.10
2022-08-09T11:36:52.942Z,78.30
2022-08-09T11:39:20.194Z,78.00
2022-08-09T11:41:48.875Z,77.20
2022-08-09T11:44:16.135Z,74.80
2022-08-09T11:47:00.816Z,74.70
2022-08-09T11:50:54.293Z,74.80
2022-08-09T11:53:16.368Z,72.40
2022-08-09T11:55:52.413Z,72.20
2022-08-09T12:01:08.241Z,70.80
2022-08-09T12:03:56.754Z,69.40
2022-08-09T12:06:32.866Z,66.90
2022-08-09T12:09:19.495Z,66.90
2022-08-09T12:12:02.263Z,65.70
2022-08-09T12:14:41.025Z,67.40
2022-08-09T12:17:34.257Z,65.90
2022-08-09T12:20:22.369Z,65.70
2022-08-09T12:23:00.308Z,66.50
2022-08-09T12:25:37.985Z,67.50
2022-08-09T12:29:13.368Z,66.40
2022-08-09T12:31:01.169Z,63.50
2022-08-09T12:33:50.985Z,62.70
2022-08-09T12:36:31.432Z,64.60
2022-08-09T12:38:59.708Z,62.80
2022-08-09T12:41:38.076Z,62.50
2022-08-09T12:44:09.657Z,61.50
2022-08-09T12:46:39.656Z,62.80
2022-08-09T12:49:08.836Z,62.50
2022-08-09T12:52:01.314Z,60.40
2022-08-09T12:54:23.908Z,60.40
2022-08-09T12:56:54.396Z,60.80
2022-08-09T12:59:23.719Z,60.40
2022-08-09T13:01:59.816Z,59.80
2022-08-09T13:04:38.011Z,58.60
2022-08-09T13:07:19.748Z,59.70
2022-08-09T13:09:55.050Z,56.90
2022-08-09T13:12:28.035Z,58.00
2022-08-09T13:15:07.909Z,56.90
2022-08-09T13:17:58.682Z,56.60
2022-08-09T13:20:37.421Z,56.60
2022-08-09T13:24:42.278Z,57.10
2022-08-09T13:26:07.014Z,55.20
2022-08-09T13:28:39.686Z,55.30
2022-08-09T13:32:15.826Z,56.30
2022-08-09T13:33:59.035Z,55.00
2022-08-09T13:36:40.557Z,54.70
2022-08-09T13:41:51.584Z,55.00
2022-08-09T13:42:11.946Z,53.50
2022-08-09T13:44:42.880Z,52.50
2022-08-09T13:47:25.552Z,53.80
2022-08-09T13:50:12.518Z,52.30
2022-08-09T13:52:41.753Z,52.20
2022-08-09T13:55:13.778Z,51.90
2022-08-09T13:57:56.091Z,52.40
2022-08-09T14:00:28.351Z,53.50
2022-08-09T14:03:04.113Z,50.80
2022-08-09T14:05:57.161Z,51.80
2022-08-09T14:08:30.243Z,51.70
2022-08-09T14:10:59.377Z,51.50
2022-08-09T14:14:23.073Z,51.30
2022-08-09T14:16:28.387Z,51.00
2022-08-09T14:18:58.075Z,50.90
2022-08-09T14:21:29.213Z,50.60
2022-08-09T14:23:57.491Z,49.80
2022-08-09T14:26:32.455Z,49.60
2022-08-09T14:29:07.552Z,49.40
2022-08-09T14:31:53.689Z,50.20
2022-08-09T14:34:31.134Z,49.40
2022-08-09T14:37:07.556Z,50.20
2022-08-09T14:39:45.851Z,50.10
2022-08-09T14:42:40.505Z,49.30
2022-08-09T14:46:39.731Z,49.70
2022-08-09T14:48:00.240Z,49.40
2022-08-09T14:50:32.790Z,48.50
2022-08-09T14:53:11.624Z,49.70
2022-08-09T14:55:49.924Z,50.10
2022-08-09T14:58:18.076Z,49.00
2022-08-09T15:00:48.461Z,49.10
2022-08-09T15:03:20.256Z,49.60
2022-08-09T15:05:52.351Z,48.40
2022-08-09T15:08:24.332Z,49.00
2022-08-09T15:11:01.182Z,48.00
2022-08-09T15:13:48.566Z,49.70
2022-08-09T15:16:19.801Z,49.50
2022-08-09T15:18:48.345Z,48.50
2022-08-09T15:21:56.132Z,48.30
2022-08-09T15:24:12.590Z,48.30
2022-08-09T15:26:45.927Z,48.50
2022-08-09T15:30:56.335Z,48.50
2022-08-09T15:32:02.867Z,49.10
2022-08-09T15:34:34.171Z,48.50
2022-08-09T15:37:23.642Z,48.10
2022-08-09T15:39:54.771Z,48.20
2022-08-09T15:42:22.377Z,48.20
2022-08-09T15:44:50.528Z,48.40
2022-08-09T15:47:22.500Z,48.40
2022-08-09T15:50:03.928Z,46.80
2022-08-09T15:52:35.495Z,48.20
2022-08-09T15:55:05.789Z,48.50
2022-08-09T15:57:35.178Z,48.10
2022-08-09T16:00:25.153Z,48.10
2022-08-09T16:02:56.590Z,47.60
2022-08-09T16:05:47.806Z,50.00
2022-08-09T16:08:30.199Z,49.50
2022-08-09T16:11:02.685Z,50.50
2022-08-09T16:14:04.642Z,51.70
2022-08-09T16:16:19.338Z,51.40
2022-08-09T16:18:47.996Z,52.10
2022-08-09T16:21:17.001Z,50.00
2022-08-09T16:23:50.844Z,51.10
2022-08-09T16:26:35.628Z,52.10
2022-08-09T16:29:11.749Z,53.90
2022-08-09T16:32:17.965Z,54.20
2022-08-09T16:34:54.425Z,53.60
2022-08-09T16:37:53.921Z,53.90
2022-08-09T16:40:10.221Z,54.70
2022-08-09T16:42:38.847Z,54.40
2022-08-09T16:45:18.712Z,55.80
2022-08-09T16:48:39.029Z,56.50
2022-08-09T16:50:39.130Z,56.50
2022-08-09T16:53:09.257Z,55.80
2022-08-09T16:55:57.881Z,56.70
2022-08-09T16:58:26.046Z,55.80
2022-08-09T17:00:53.348Z,56.10
2022-08-09T17:03:22.958Z,55.60
2022-08-09T17:06:06.910Z,57.20
2022-08-09T17:08:43.134Z,57.50
2022-08-09T17:11:40.190Z,56.70
2022-08-09T17:14:25.901Z,56.20
2022-08-09T17:17:02.688Z,54.20
2022-08-09T17:20:05.162Z,55.50
2022-08-09T17:22:23.918Z,55.30
2022-08-09T17:24:56.145Z,55.80
2022-08-09T17:27:32.485Z,55.30
2022-08-09T17:30:00.141Z,56.50
2022-08-09T17:32:37.374Z,54.90
2022-08-09T17:35:11.263Z,56.10
2022-08-09T17:38:14.193Z,56.60
2022-08-09T17:40:29.505Z,56.40
2022-08-09T17:43:10.911Z,56.50
2022-08-09T17:46:02.178Z,57.40
2022-08-09T17:48:31.145Z,55.50
2022-08-09T17:51:00.930Z,57.60
2022-08-09T17:53:42.921Z,58.10
2022-08-09T17:56:10.931Z,57.50
2022-08-09T17:58:38.107Z,57.90
2022-08-09T18:01:11.008Z,57.80
2022-08-09T18:03:49.394Z,57.00
2022-08-09T18:06:31.768Z,57.00
2022-08-09T18:09:03.660Z,58.20
2022-08-09T18:12:05.708Z,59.10
2022-08-09T18:14:25.008Z,59.30
2022-08-09T18:16:52.999Z,58.90
2022-08-09T18:20:56.289Z,58.90
2022-08-09T18:22:13.306Z,59.20
2022-08-09T18:24:45.977Z,59.80
2022-08-09T18:27:33.670Z,60.70
2022-08-09T18:30:40.183Z,60.60
2022-08-09T18:32:54.309Z,60.80
2022-08-09T18:35:58.650Z,60.80
2022-08-09T18:38:11.794Z,61.60
2022-08-09T18:40:40.980Z,62.90
2022-08-09T18:43:08.764Z,63.40
2022-08-09T18:46:48.424Z,62.00
2022-08-09T18:48:25.570Z,63.50
2022-08-09T18:50:58.175Z,63.00
2022-08-09T18:53:28.256Z,62.30
2022-08-09T18:56:15.566Z,62.40
2022-08-09T18:58:43.131Z,63.40
2022-08-09T19:01:12.358Z,62.90
2022-08-09T19:04:01.015Z,61.90
2022-08-09T19:06:27.932Z,62.10
2022-08-09T19:09:03.202Z,63.00
2022-08-09T19:11:37.544Z,63.40
2022-08-09T19:14:07.033Z,63.70
2022-08-09T19:16:36.291Z,64.20
2022-08-09T19:19:25.084Z,64.50
2022-08-09T19:22:04.577Z,63.70
2022-08-09T19:24:38.733Z,64.60
2022-08-09T19:27:20.626Z,65.40
2022-08-09T19:30:21.348Z,66.20
2022-08-09T19:32:36.909Z,65.50
2022-08-09T19:35:04.833Z,65.00
2022-08-09T19:37:41.102Z,64.90
2022-08-09T19:40:20.359Z,65.00
2022-08-09T19:42:49.612Z,65.60
2022-08-09T19:45:17.600Z,65.50
2022-08-09T19:47:45.846Z,65.30
2022-08-09T19:50:50.273Z,65.80
2022-08-09T19:53:02.529Z,65.80
2022-08-09T19:55:39.189Z,66.10
2022-08-09T19:58:30.079Z,66.30
2022-08-09T20:00:58.344Z,66.10
2022-08-09T20:04:17.372Z,66.30
2022-08-09T20:06:23.270Z,66.30
2022-08-09T20:08:56.547Z,66.70
2022-08-09T20:11:43.098Z,67.10
2022-08-09T20:14:16.481Z,67.60
2022-08-09T20:16:54.012Z,67.50
2022-08-09T20:19:47.766Z,67.80
2022-08-09T20:22:14.503Z,68.60
2022-08-09T20:24:53.361Z,67.90
2022-08-09T20:27:22.069Z,68.10
2022-08-09T20:29:49.307Z,68.20
2022-08-09T20:32:33.445Z,68.50
2022-08-09T20:35:02.213Z,69.00
2022-08-09T20:38:18.979Z,70.10
2022-08-09T20:40:26.252Z,70.20
2022-08-09T20:43:11.972Z,70.80
2022-08-09T20:46:00.317Z,70.80
2022-08-09T20:48:31.826Z,71.00
2022-08-09T20:51:01.191Z,70.90
2022-08-09T20:53:37.118Z,71.40
2022-08-09T20:56:19.835Z,71.80
2022-08-09T20:58:54.729Z,71.90
2022-08-09T21:01:34.516Z,71.70
2022-08-09T21:05:50.885Z,72.00
2022-08-09T21:07:12.295Z,72.10
2022-08-09T21:09:57.055Z,72.00
2022-08-09T21:15:23.788Z,73.30
2022-08-09T21:18:21.808Z,73.60
2022-08-09T21:20:53.848Z,74.00
2022-08-09T21:23:35.929Z,74.80
2022-08-09T21:26:09.689Z,74.40
2022-08-09T21:28:37.142Z,74.70
2022-08-09T21:31:13.520Z,75.80
2022-08-09T21:33:52.815Z,75.40
2022-08-09T21:36:29.144Z,75.10
2022-08-09T21:39:00.016Z,75.70
2022-08-09T21:42:03.781Z,75.60
2022-08-09T21:44:34.765Z,76.20
2022-08-09T21:47:09.203Z,76.80
2022-08-09T21:49:39.429Z,76.40
2022-08-09T21:52:17.018Z,76.50
2022-08-09T21:55:03.071Z,76.70
2022-08-09T21:57:39.488Z,77.10
2022-08-09T22:00:33.867Z,76.40
2022-08-09T22:03:07.172Z,77.00
2022-08-09T22:05:37.499Z,77.50
2022-08-09T22:08:13.965Z,77.80
2022-08-09T22:11:26.475Z,78.00
2022-08-09T22:13:34.731Z,78.40
2022-08-09T22:16:08.721Z,78.20
2022-08-09T22:18:52.221Z,78.40
2022-08-09T22:21:27.261Z,78.90
2022-08-09T22:24:17.075Z,79.20
2022-08-09T22:26:51.840Z,79.00
2022-08-09T22:29:24.087Z,79.60
2022-08-09T22:31:57.863Z,80.00
2022-08-09T22:34:26.815Z,80.10
2022-08-09T22:36:58.739Z,80.00
2022-08-09T22:39:57.907Z,80.40
2022-08-09T22:42:21.929Z,80.60
2022-08-09T22:48:04.561Z,80.50
2022-08-09T22:48:14.553Z,81.20
2022-08-09T22:50:31.621Z,81.50
2022-08-09T22:53:03.629Z,81.30
2022-08-09T22:56:06.412Z,81.30
2022-08-09T22:58:20.180Z,81.90
2022-08-09T23:01:05.623Z,82.50
2022-08-09T23:04:06.040Z,83.00
2022-08-09T23:06:32.718Z,83.10
2022-08-09T23:09:02.264Z,83.20
2022-08-09T23:11:29.295Z,83.40
2022-08-09T23:13:56.345Z,83.50
2022-08-09T23:16:23.909Z,83.70
2022-08-09T23:18:50.958Z,84.10
2022-08-09T23:21:25.322Z,84.30
2022-08-09T23:23:57.932Z,84.60
2022-08-09T23:26:32.972Z,85.10
2022-08-09T23:29:00.064Z,85.50
2022-08-09T23:31:27.117Z,86.10
2022-08-09T23:33:54.342Z,86.70
2022-08-09T23:36:21.459Z,87.10
2022-08-09T23:38:49.551Z,86.70
2022-08-09T23:41:28.864Z,86.80
2022-08-09T23:43:58.314Z,87.60
2022-08-09T23:46:25.833Z,87.50
2022-08-09T23:48:52.904Z,88.00
2022-08-09T23:51:20.162Z,88.50
2022-08-09T23:53:52.356Z,88.80
2022-08-09T23:56:52.691Z,89.30
2022-08-09T23:59:07.044Z,90.00
